Nearby METAR Reports

 

KPMD - Palmdale, California, USA
Distance from station: NNE 12mi, 19km
Updated: Tue, 23-Jul-2024 1:53am PDT
Clear
Clear
 Wind from SSW
Wind: SSW 9 mph, 15 km/h
Temperature: 84°F, 29°C
Dew Point: 43°F, 6°C
Humidity: 23%
Barometer: 29.95 inHg, 1014.2 hPa
Clouds: Clear
Visibility: 10 miles, 16 km
2024/07/23 08:53 KPMD 230853Z AUTO 20008KT 10SM CLR 29/06 A2995 RMK AO2 SLP100 T02890061 52005
KWJF - Lancaster/Fox, California, USA
Distance from station: N 17mi, 27km
Updated: Tue, 23-Jul-2024 1:56am PDT
Clear
Clear
 Wind from WNW
Wind: WNW 6 mph, 9 km/h
Temperature: 84°F, 29°C
Dew Point: 48°F, 9°C
Humidity: 29%
Barometer: 29.93 inHg, 1013.5 hPa
Clouds: Clear
Visibility: 10 miles, 16 km
2024/07/23 08:56 KWJF 230856Z AUTO 30005KT 10SM CLR 29/09 A2993 RMK AO2 SLP102 T02890089 52007
 
KMWS - Mount Wilson, California, USA
Distance from station: SSE 18mi, 30km
Updated: Wed, 13-May-2015 6:45am PDT
NOT Current

 Wind from S
Wind: S 3 mph, 6 km/h, Gust: 5 mph, 7 km/h
Temperature: 43°F, 6°C
Dew Point: -0°F, -18°C
Humidity: 16%
2015/05/13 13:45 KMWS 131345Z 18003G04KT 06/M18 RMK SNOW DEPTH 1.00
KWHP - La / Whiteman, California, USA
Distance from station: SW 21mi, 34km
Updated: Mon, 22-Jul-2024 6:55pm PDT
NOT Current
Clear
Clear
 Wind from ESE
Wind: ESE 8 mph, 13 km/h
Temperature: 86°F, 30°C
Dew Point: 55°F, 13°C
Humidity: 35%
Barometer: 29.83 inHg, 1010.2 hPa
Clouds: Clear
Visibility: 10 miles, 16 km
2024/07/23 01:55 KWHP 230155Z 12007KT 10SM SKC 30/13 A2983
 
KBUR - Burbank, California, USA
Distance from station: SSW 22mi, 35km
Updated: Tue, 23-Jul-2024 1:53am PDT
Clear
Clear
 Wind from SSE
Wind: SSE 5 mph, 7 km/h
Temperature: 70°F, 21°C
Dew Point: 57°F, 14°C
Humidity: 64%
Barometer: 29.88 inHg, 1011.9 hPa
Clouds: Clear
Visibility: 10 miles, 16 km
2024/07/23 08:53 KBUR 230853Z 15004KT 10SM CLR 21/14 A2988 RMK AO2 SLP103 T02110139 50002
KVNY - Van Nuys, California, USA
Distance from station: SW 25mi, 40km
Updated: Tue, 23-Jul-2024 1:51am PDT
Clear
Clear
 Wind from SSE
Wind: SSE 3 mph, 6 km/h
Temperature: 72°F, 22°C
Dew Point: 54°F, 12°C
Humidity: 53%
Barometer: 29.87 inHg, 1011.5 hPa
Clouds: Clear
Visibility: 10 miles, 16 km
2024/07/23 08:51 KVNY 230851Z AUTO 15003KT 10SM CLR 22/12 A2987 RMK AO2 SLP103 T02220122 50004
 
KEDW - Edwards Afb, California, USA
Distance from station: NNE 33mi, 53km
Updated: Tue, 23-Jul-2024 1:55am PDT
Mostly cloudy
Mostly cloudy
 Wind from SSW
Wind: SSW 9 mph, 15 km/h
Temperature: 84°F, 29°C
Dew Point: 43°F, 6°C
Humidity: 23%
Barometer: 29.89 inHg, 1012.2 hPa
Clouds: Mostly cloudy
Visibility: 10 miles, 16 km
Cloud details: Partly cloudy 15000 ft
Mostly cloudy 17000 ft
2024/07/23 08:55 KEDW 230855Z AUTO 20008KT 10SM SCT150 BKN170 29/06 A2989 RMK AO2 SLP087 T02880056 53006
KSMO - Santa Monica, California, USA
Distance from station: SSW 35mi, 57km
Updated: Tue, 23-Jul-2024 1:51am PDT
Clear
Clear
 Wind from calm
Wind: Calm
Temperature: 66°F, 19°C
Dew Point: 59°F, 15°C
Humidity: 78%
Barometer: 29.87 inHg, 1011.5 hPa
Clouds: Clear
Visibility: 10 miles, 16 km
2024/07/23 08:51 KSMO 230851Z AUTO 00000KT 10SM CLR 19/15 A2987 RMK AO2 SLP114 T01940150 51000
 
KLAX - Los Angeles, California, USA
Distance from station: SSW 39mi, 63km
Updated: Tue, 23-Jul-2024 1:53am PDT
Partly cloudy
Partly cloudy
 Wind from N
Wind: N 3 mph, 6 km/h
Temperature: 66°F, 19°C
Dew Point: 61°F, 16°C
Humidity: 83%
Barometer: 29.87 inHg, 1011.5 hPa
Clouds: Partly cloudy
Visibility: 10 miles, 16 km
Cloud details: Few Clouds 300 ft
Few Clouds 1200 ft
Partly cloudy 22000 ft
2024/07/23 08:53 KLAX 230853Z 35003KT 10SM FEW003 FEW012 SCT220 19/16 A2987 RMK AO2 SLP113 T01940156 53000 $
KMHV - Mojave, California, USA
Distance from station: N 41mi, 66km
Updated: Tue, 23-Jul-2024 1:40am PDT
Clear
Clear
 Wind from calm
Wind: Calm
Temperature: 88°F, 31°C
Dew Point: 46°F, 8°C
Humidity: 24%
Barometer: 29.95 inHg, 1014.2 hPa
Clouds: Clear
Visibility: 10 miles, 16 km
2024/07/23 08:40 KMHV 230840Z AUTO 00000KT 10SM CLR 31/08 A2995 RMK AO2
 
KFUL - Fullerton, California, USA
Distance from station: SSE 44mi, 70km
Updated: Tue, 23-Jul-2024 1:53am PDT
Clear
Clear
 Wind from calm
Wind: Calm
Temperature: 70°F, 21°C
Dew Point: 66°F, 19°C
Humidity: 88%
Barometer: 29.85 inHg, 1010.8 hPa
Clouds: Clear
Visibility: 9 miles, 14 km
2024/07/23 08:53 KFUL 230853Z AUTO 00000KT 9SM CLR 21/19 A2985 RMK AO2 SLP108 T02060194 58004
KONT - Ontario, California, USA
Distance from station: SE 45mi, 72km
Updated: Tue, 23-Jul-2024 1:53am PDT
Few Clouds
Few Clouds
 Wind from SSW
Wind: SSW 5 mph, 7 km/h
Temperature: 73°F, 23°C
Dew Point: 52°F, 11°C
Humidity: 47%
Barometer: 29.87 inHg, 1011.5 hPa
Clouds: Few Clouds
Visibility: 10 miles, 16 km
Cloud details: Few Clouds 20000 ft
2024/07/23 08:53 KONT 230853Z 21004KT 10SM FEW200 23/11 A2987 RMK AO2 SLP095 T02280106 58002
 
KLGB - Long Beach, California, USA
Distance from station: S 46mi, 74km
Updated: Tue, 23-Jul-2024 1:53am PDT
Clear
Clear
 Wind from S
Wind: S 3 mph, 6 km/h
Temperature: 72°F, 22°C
Dew Point: 64°F, 18°C
Humidity: 78%
Barometer: 29.87 inHg, 1011.5 hPa
Clouds: Clear
Visibility: 10 miles, 16 km
2024/07/23 08:53 KLGB 230853Z AUTO 18003KT 10SM CLR 22/18 A2987 RMK AO2 SLP113 T02170178 50000
KVCV - Victorville, California, USA
Distance from station: E 46mi, 74km
Updated: Tue, 23-Jul-2024 1:55am PDT
Few Clouds
Few Clouds
 Wind from SE
Wind: SE 8 mph, 13 km/h
Temperature: 84°F, 29°C
Dew Point: 52°F, 11°C
Humidity: 33%
Barometer: 30.00 inHg, 1015.9 hPa
Clouds: Few Clouds
Visibility: 10 miles, 16 km
Cloud details: Few Clouds 12000 ft
2024/07/23 08:55 KVCV 230855Z AUTO 14007KT 10SM FEW120 29/11 A3000 RMK AO2
 
KTSP - Tehachapi, California, USA
Distance from station: NNW 48mi, 77km
Updated: Tue, 23-Jul-2024 1:55am PDT
Few Clouds
Few Clouds
 Wind from calm
Wind: Calm
Temperature: 72°F, 22°C
Dew Point: 46°F, 8°C
Humidity: 41%
Barometer: 30.10 inHg, 1019.3 hPa
Clouds: Few Clouds
Visibility: 10 miles, 16 km
Cloud details: Few Clouds 12000 ft
2024/07/23 08:55 KTSP 230855Z AUTO 00000KT 10SM FEW120 22/08 A3010 RMK AO2